Effective Sunday, March 17, 2024, the National Weather Service National Data Buoy Center will discontinue its Dial-A-Buoy Interactive Voice Response system. For more information, see Service Change Notice 24-06 (PDF).

Station 51004 (LLNR 28005) - SOUTHEAST HAWAII - 205 NM Southeast of Hilo, HI Image indicating link to RSS feed of recent meteorological observations for station 51004


Conditions at 51004 as of
(3:30 pm HAST on 02/23/2024)
0130 GMT on 02/24/2024:
     

Click on the graph icon in the table below to see a time series plot of the last five days of that observation.

5-day plot - Wind Direction Wind Direction (WDIR):ENE ( 70 deg true )
5-day plot - Wind Speed Wind Speed (WSPD): 17.5 kts
5-day plot - Wind Gust Wind Gust (GST): 21.4 kts
5-day plot - Air Temperature Air Temperature (ATMP): 73.9 °F
5-day plot - Water Temperature Water Temperature (WTMP): 76.3 °F
5-day plot - Dew Point Dew Point (DEWP): 63.1 °F
5-day plot - Wind Speed at 10 Meters Wind Speed at 10 meters (WSPD10M): 19.4 kts
5-day plot - Wind Speed at 20 Meters Wind Speed at 20 meters (WSPD20M): 21.4 kts
5-day plot -  Wind Speed, Wind Gust and Atmospheric Pressure Combined plot of Wind Speed, Gust, and Air Pressure
Supplemental Measurements
Highest 1-minute Wind Speed
Time (HAST)5-day plot - 1-Minute Wind Speed WSPD 5-day plot - 1-Minute Wind Direction WDIR
3:22 pm 19.4 kts-
Previous observations
TIME
(HAST)
5-day plot - Wind Direction
WDIR
 
5-day plot - Wind Speed
WSPD
kts
5-day plot - Wind Gust
GST
kts
5-day plot - Wave Height
WVHT
ft
5-day plot - Dominant Wave Period
DPD
sec
5-day plot - Average Wave Period
APD
sec
5-day plot - Mean Wave Direction
MWD
 
5-day plot - Atmospheric Pressure
PRES
in
5-day plot - Pressure Tendency
PTDY
in
5-day plot - Air Temperature
ATMP
°F
5-day plot - Water Temperature
WTMP
°F
5-day plot - Dew Point
DEWP
°F
5-day plot - Salinity
SAL
psu
5-day plot - Visibility
VIS
nmi
5-day plot - Tide (above MLLW)
TIDE
ft
2024-02-23 03:20 pmENE 17.5 21.4 7.5 86.1 E-- 73.9 76.3 63.9---
2024-02-23 03:10 pmENE 17.5 21.4 7.5-6.1 E-- 74.1 76.3 63.9---
2024-02-23 03:00 pmENE 17.5 21.4------ 74.3 76.3 63.3---
2024-02-23 02:50 pmENE 17.5 21.4 7.2 95.9 E-- 74.5 76.3 62.2---
2024-02-23 02:40 pmENE 17.5 23.3------ 74.7 76.3 61.9---
2024-02-23 02:30 pmENE 17.5 21.4------ 74.7 76.3 61.9---
2024-02-23 02:20 pmENE 17.5 21.4 8.2 146.3 N-- 74.7 76.3 62.2---
2024-02-23 02:10 pmENE 15.5 19.4 8.2-6.3 N-- 74.5 76.3 62.2---
2024-02-23 02:00 pmENE 17.5 21.4------ 74.1 76.3 62.8---
2024-02-23 01:50 pmENE 17.5 23.3 7.9 146.2 NE-- 73.9 76.3 63.1---
2024-02-23 01:40 pmENE 19.4 23.3------ 73.9 76.3 64.0---
2024-02-23 01:10 pmENE 17.5 25.3 7.9-6.2 E-- 74.8 76.3 63.1---
2024-02-23 01:00 pmENE 17.5 21.4------ 74.7 76.3 62.8---
2024-02-23 12:50 pmENE 17.5 21.4 7.5 146.1NNE-- 74.5 76.1 63.5---
2024-02-23 12:40 pmENE 17.5 21.4 7.5-6.1NNE-- 74.5 76.1 63.9---
2024-02-23 12:30 pmENE 19.4 23.3------ 74.3 76.1 64.4---
2024-02-23 12:20 pm E 17.5 23.3 7.9 136.2NNE-- 74.5 76.1 65.5---
2024-02-23 12:10 pmENE 17.5 21.4 7.9-6.2NNE-- 75.0 76.1 63.0---
2024-02-23 12:00 pmENE 17.5 21.4------ 75.2 76.1 62.4---
2024-02-23 11:50 amENE 17.5 21.4 7.5 145.9 NE-- 75.0 76.1 62.2---
2024-02-23 11:40 am E 15.5 21.4 7.5-5.9 NE-- 74.8 76.1 63.7---
2024-02-23 11:30 am E 17.5 21.4------ 74.8 76.1 63.3---
2024-02-23 11:20 am E 17.5 21.4 7.9 156.1 NW-- 74.7 76.1 64.0---
2024-02-23 11:10 am E 17.5 21.4 7.9-6.1 NW-- 74.8 76.1 64.8---
2024-02-23 11:00 amENE 17.5 23.3------ 74.7 76.1 63.0---
2024-02-23 10:50 amENE 17.5 21.4 8.2 86.4 E-- 74.7- 63.5---
2024-02-23 10:40 amENE 17.5 21.4------ 74.8- 62.6---
2024-02-23 10:30 amENE 17.5 23.3------ 75.0 76.1 61.5---
2024-02-23 10:20 amENE 17.5 21.4 8.5 156.4 N-- 75.0 76.1 61.9---
2024-02-23 10:10 amENE 17.5 23.3 8.5-6.4 N-- 74.8 76.1 62.4---
2024-02-23 10:00 amENE 19.4 21.4------ 74.5 76.1 64.2---
2024-02-23 09:50 amENE 17.5 21.4 8.2 136.6NNE-- 74.5 76.1 64.9---
2024-02-23 09:40 amENE 17.5 23.3 8.2-6.6NNE-- 74.7 76.1 64.6---
2024-02-23 09:30 amENE 17.5 21.4------ 74.7 76.1 64.8---
2024-02-23 09:20 amENE 17.5 21.4 7.9 76.3 E-- 74.8 76.1 64.2---
2024-02-23 09:10 amENE 17.5 21.4 7.9-6.3 E-- 74.8 76.1 63.5---
2024-02-23 09:00 amENE 15.5 19.4------ 74.8 76.1 63.5---
2024-02-23 08:50 amENE 15.5 19.4 8.2 76.3 E-- 75.0 76.1 63.3---
2024-02-23 08:40 amENE 17.5 21.4------ 74.8 76.1 63.3---
2024-02-23 08:30 amENE 17.5 21.4------ 74.8 76.1 63.5---
2024-02-23 08:20 amENE 17.5 21.4 7.9 156.5 NW-- 74.7 76.1 64.0---
2024-02-23 08:10 amENE 17.5 19.4------ 74.5 76.1 64.0---
2024-02-23 08:00 amENE 17.5 21.4------ 74.7 76.1 64.6---
2024-02-23 07:50 amENE 17.5 21.4 8.2 86.5 E-- 74.5 76.1 64.0---
2024-02-23 07:40 amENE 15.5 19.4------ 74.1 76.1 64.0---
2024-02-23 07:30 am NE 15.5 21.4------ 73.6 76.1 64.9---
2024-02-23 07:20 amENE 15.5 19.4 7.9 136.6 N-- 74.1 76.1 64.8---
2024-02-23 07:10 amENE 13.6 17.5 7.9-6.6 N-- 74.1 76.1 63.9---
2024-02-23 07:00 amENE 15.5 21.4------ 73.9 76.1 62.1---
2024-02-23 06:50 am NE 17.5 23.3 8.2 156.4NNE-- 73.6 76.1 61.9---
2024-02-23 06:40 amENE 15.5 21.4 8.2-6.4NNE-- 72.1 76.1 64.0---
2024-02-23 06:30 am NE 19.4 29.1------ 72.7 76.1 64.2---
2024-02-23 06:20 amNNE 15.5 17.5 8.5 96.4 E-- 72.7 75.9 62.8---
2024-02-23 06:10 amNNE 17.5 21.4 8.5-6.4 E-- 73.4 75.9 62.2---
2024-02-23 06:00 am NE 17.5 23.3------ 73.9 75.9 61.2---
2024-02-23 05:50 amENE 19.4 25.3 8.5 86.7 E-- 73.9 75.9 62.1---
2024-02-23 05:40 amENE 17.5 25.3 8.5-6.7 E-- 74.1 75.9 62.8---
2024-02-23 05:30 amENE 17.5 19.4------ 73.6 75.9 64.4---
2024-02-23 05:20 amENE 19.4 23.3 8.5 146.3ENE-- 73.6 75.9 65.5---
2024-02-23 05:10 amENE 17.5 21.4 8.5-6.3ENE-- 74.3 75.9 65.3---
2024-02-23 05:00 amENE 17.5 21.4------ 73.9 75.9 64.6---
2024-02-23 04:50 amENE 17.5 21.4 8.2 146.5 N-- 73.9 75.9 64.6---
2024-02-23 04:40 amENE 17.5 23.3 8.2-6.5 N-- 73.9 75.9 64.9---
2024-02-23 04:30 amENE 17.5 21.4------ 73.9 75.9 65.1---
2024-02-23 04:20 amENE 17.5 21.4 8.5 96.6ESE-- 73.9 75.9 64.9---
2024-02-23 04:10 amENE 17.5 21.4 8.5-6.6ESE-- 74.1 75.7 64.2---
2024-02-23 04:00 amENE 17.5 21.4------ 73.9 75.7 63.9---
2024-02-23 03:50 amENE 17.5 21.4 7.9 166.4 N-- 73.8 75.7 64.4---
2024-02-23 03:40 amENE 17.5 21.4 7.9-6.4 N-- 73.9 75.7 64.9---
2024-02-23 03:30 amENE 17.5 21.4------ 73.9 75.7 65.1---
2024-02-23 03:20 amENE 17.5 21.4 8.5 146.6 N-- 74.1 75.7 64.8---
2024-02-23 03:10 am E 19.4 23.3 8.5-6.6 N-- 73.9 75.7 64.9---
2024-02-23 03:00 amENE 19.4 23.3------ 73.9 75.7 65.1---
2024-02-23 02:50 amENE 17.5 23.3 8.2 156.4NNE-- 74.1 75.7 64.6---
2024-02-23 02:40 amENE 17.5 21.4 8.2-6.4NNE-- 74.1 75.7 64.2---
2024-02-23 02:30 amENE 15.5 19.4------ 74.1 75.7 64.0---
2024-02-23 02:20 amENE 17.5 21.4 8.5 156.6 N-- 74.1 75.7 64.0---
2024-02-23 02:10 amENE 17.5 19.4 8.5-6.6 N-- 74.1 75.9 63.7---
2024-02-23 02:00 am E 17.5 21.4------ 74.1 75.9 63.7---
2024-02-23 01:50 amENE 15.5 21.4 8.5 166.4 N-- 74.1 75.9 63.9---
2024-02-23 01:40 amENE 15.5 19.4------ 74.1 75.9 64.0---
2024-02-23 01:30 amENE 17.5 19.4------ 74.1 75.9 63.3---
2024-02-23 01:20 amENE 17.5 21.4 8.5 166.6NNE-- 74.1 75.9 63.9---
2024-02-23 01:10 amENE 17.5 23.3 8.5-6.6NNE-- 74.1 75.9 63.7---
2024-02-23 01:00 amENE 17.5 21.4------ 74.1 75.9 63.5---
2024-02-23 12:50 amENE 17.5 21.4 8.5 86.3ESE-- 74.1 75.9 63.3---
2024-02-23 12:40 am E 17.5 21.4------ 74.3 75.9 63.7---
2024-02-23 12:30 amENE 17.5 21.4------ 74.3 75.9 63.9---
2024-02-23 12:20 amENE 17.5 21.4 8.5 86.5 E-- 74.1 75.9 64.0---
2024-02-23 12:10 amENE 17.5 21.4 8.5-6.5 E-- 74.3 75.9 64.6---
2024-02-23 12:00 amENE 17.5 23.3------ 74.1 75.9 65.1---
2024-02-22 11:50 pmENE 19.4 23.3 8.2 86.2 E-- 74.3 75.9 65.5---
2024-02-22 11:40 pmENE 17.5 23.3 8.2-6.2 E-- 74.3 75.9 65.7---
2024-02-22 11:30 pmENE 19.4 23.3------ 74.5 75.9 64.6---
2024-02-22 11:20 pmENE 19.4 23.3 7.9 96.4 E-- 74.5 75.9 64.4---
2024-02-22 11:10 pmENE 19.4 23.3 7.9-6.4 E-- 74.7 75.9 65.5---
2024-02-22 11:00 pmENE 19.4 23.3------ 74.7 75.9 64.9---
2024-02-22 10:50 pmENE 19.4 25.3 8.2 86.7ESE-- 74.7 75.9 64.8---
2024-02-22 10:40 pmENE 19.4 23.3 8.2-6.7ESE-- 74.7 75.9 64.6---
2024-02-22 10:30 pmENE 19.4 23.3------ 74.7 75.9 64.2---
2024-02-22 10:20 pmENE 19.4 23.3 7.5 86.4 E-- 74.7 75.9 64.9---
2024-02-22 10:10 pmENE 19.4 21.4 7.5-6.4 E-- 74.8 75.9 64.8---
2024-02-22 10:00 pmENE 17.5 21.4------ 74.8 75.9 64.4---
2024-02-22 09:50 pmENE 17.5 21.4 7.5 86.5 E-- 74.3 75.9 64.9---
2024-02-22 09:40 pmENE 15.5 21.4 7.5-6.5 E-- 74.7 75.9 65.7---
2024-02-22 09:30 pmENE 13.6 17.5------ 74.3 75.9 64.8---
2024-02-22 09:20 pm E 11.7 15.5 7.5 86.0 E-- 74.1 75.9 64.0---
2024-02-22 09:10 pm E 15.5 21.4------ 74.3 75.9 63.0---
2024-02-22 09:00 pm E 19.4 25.3------ 73.2 75.9 63.9---
2024-02-22 08:50 pmENE 21.4 25.3 7.5 76.4ENE-- 73.0 75.9 65.3---
2024-02-22 08:40 pmENE 19.4 25.3 7.5-6.4ENE-- 74.3 75.9 66.0---
2024-02-22 08:30 pmENE 17.5 19.4------ 74.5 75.9 66.2---
2024-02-22 08:20 pmENE 17.5 19.4 7.5 156.3 N-- 74.8 75.9 65.1---
2024-02-22 08:10 pmENE 17.5 23.3 7.5-6.3 N-- 74.8 75.9 64.2---
2024-02-22 08:00 pmENE 17.5 21.4------ 74.7 75.9 64.4---
2024-02-22 07:50 pmENE 15.5 21.4 7.5 86.3ESE-- 74.5 75.9 65.3---
2024-02-22 07:40 pmENE 15.5 19.4 7.5-6.3ESE-- 74.1 75.9 66.0---
2024-02-22 07:30 pm E 17.5 21.4------ 74.1 75.9 66.6---
2024-02-22 07:20 pmENE 17.5 23.3 7.2 96.6ESE-- 74.8 75.9 64.9---
2024-02-22 07:10 pmENE 17.5 19.4 7.2-6.6ESE-- 74.8 75.9 65.3---
2024-02-22 07:00 pmENE 15.5 19.4------ 74.8 75.9 65.3---
2024-02-22 06:50 pm NE 15.5 19.4 7.5 86.7ESE-- 75.0 75.9 65.3---
2024-02-22 06:40 pmENE 13.6 17.5 7.5-6.7ESE-- 74.8 75.9 65.1---
2024-02-22 06:30 pmENE 15.5 19.4------ 74.8 75.9 64.8---
2024-02-22 06:20 pmENE 15.5 19.4 7.9 156.8NNW-- 74.8 75.9 64.6---
2024-02-22 06:10 pmENE 15.5 19.4 7.9-6.8NNW-- 74.8 75.9 64.9---
2024-02-22 06:00 pmENE 15.5 19.4------ 74.8 76.1 65.1---
2024-02-22 05:50 pmENE 13.6 17.5 7.9 86.7 E-- 75.2 76.1 64.2---
2024-02-22 05:40 pmENE 13.6 17.5 7.9-6.7 E-- 75.2 76.1 63.5---
2024-02-22 05:30 pmENE 15.5 19.4------ 75.2 76.1 63.1---
2024-02-22 05:20 pmENE 13.6 17.5 7.9 96.8 E-- 75.2 76.1 63.3---
2024-02-22 05:10 pmENE 13.6 17.5 7.9-6.8 E-- 75.2 76.1 63.3---
2024-02-22 05:00 pmENE 15.5 19.4------ 75.4 76.1 63.1---
2024-02-22 04:50 pmENE 13.6 17.5 7.5 76.5 E-- 75.2 76.1 63.3---
2024-02-22 04:40 pmENE 13.6 17.5------ 75.2 76.1 63.3---
2024-02-22 04:30 pmENE 13.6 17.5------ 75.0 76.1 62.8---
2024-02-22 04:20 pmENE 13.6 17.5 7.9 96.8ENE-- 75.2 76.1 62.8---
2024-02-22 04:10 pm E 13.6 19.4 7.9-6.8ENE-- 74.5 76.1 64.4---
2024-02-22 04:00 pm E 11.7 15.5------ 74.5 76.1 65.5---
2024-02-22 03:50 pm E 11.7 15.5 7.5 106.9 E-- 74.5 76.1 65.1---
2024-02-22 03:40 pm E 11.7 15.5------ 74.5 76.1 64.9---
2024-02-22 03:30 pm E 11.7 15.5------ 74.1 76.1 64.9---
2024-02-22 03:20 pm E 11.7 15.5 7.5 96.8ESE-- 73.9 76.1 65.8---
2024-02-22 03:10 pm E 11.7 13.6 7.5-6.8ESE-- 73.6 76.1 66.0---
2024-02-22 03:00 pmESE 13.6 15.5------ 73.6 76.1 66.2---
2024-02-22 02:50 pm E 13.6 17.5 7.2 156.6ESE-- 74.5 76.1 65.7---

Detailed Wave Summary
for 51004 as of
(3:10 pm HAST on 02/23/2024)
0110 GMT on 02/24/2024:

These wave data are displayed in rounded times.

     

Click on the graph icon in the table below to see a time series plot of the last five days of that observation.

5-day plot - Significant Wave Height Significant Wave Height (WVHT): 7.5 ft
5-day plot - Swell Height Swell Height (SwH): 3.9 ft
5-day plot - Swell Period Swell Period (SwP): 12.1 sec
5-day plot - Swell Direction Swell Direction (SwD): NE
5-day plot - Wind Wave Height Wind Wave Height (WWH): 6.6 ft
5-day plot - Wind Wave Period Wind Wave Period (WWP): 7.7 sec
5-day plot - Wind Wave Direction Wind Wave Direction (WWD): E
5-day plot - Wave Steepness Wave Steepness (STEEPNESS): STEEP
5-day plot - Average Wave Period Average Wave Period (APD): 6.1 sec
Previous observations
TIME
(HAST)
5-day plot - Wave Height
WVHT
ft
5-day plot - Swell Height
SwH
ft
5-day plot - Swell Period
SwP
sec
5-day plot - Swell Direction
SwD
 
5-day plot - Wind Wave Height
WWH
ft
5-day plot - Wind Wave Period
WWP
sec
5-day plot - Wind Wave Direction
WWD
 
5-day plot - Wave Steepness
STEEPNESS
 
5-day plot - Average Wave Period
APD
sec
2024-02-23 02:40 pm 7.2 4.9 9.1 E 5.2 6.7 E AVERAGE 5.9
2024-02-23 02:10 pm 8.2 5.6 13.8 N 5.9 6.2 E AVERAGE 6.3
2024-02-23 01:40 pm 7.9 4.3 13.8 NE 6.6 8.3 E AVERAGE 6.2
2024-02-23 01:10 pm 7.9 4.6 12.9 N 6.2 7.7 E STEEP 6.2
2024-02-23 12:40 pm 7.5 5.2 13.8NNE 5.6 6.7 E AVERAGE 6.1
2024-02-23 12:10 pm 7.9 4.9 12.9NNE 5.9 7.7 E AVERAGE 6.2
2024-02-23 11:40 am 7.5 4.6 13.8 NE 5.9 7.1 E AVERAGE 5.9
2024-02-23 11:10 am 7.9 5.2 14.8 NW 5.9 7.7 E AVERAGE 6.1
2024-02-23 10:40 am 8.2 4.6 13.8WNW 6.9 7.7 E STEEP 6.4
2024-02-23 10:10 am 8.5 5.2 14.8 N 6.6 6.7 E AVERAGE 6.4
2024-02-23 09:40 am 8.2 5.9 12.9NNE 5.6 7.7 E SWELL 6.6
2024-02-23 09:10 am 7.9 4.6 9.1 E 6.2 7.1 E STEEP 6.3
2024-02-23 08:40 am 8.2 4.6 12.9NNE 6.9 7.1 E STEEP 6.3
2024-02-23 08:10 am 7.9 5.2 14.8 NW 6.2 7.1 E AVERAGE 6.5
2024-02-23 07:40 am 8.2 5.9 7.7 E 5.6 6.7 E STEEP 6.5
2024-02-23 07:10 am 7.9 6.2 12.9 N 4.6 5.9 ENE SWELL 6.6
2024-02-23 06:40 am 8.2 5.9 14.8NNE 5.6 6.7 E SWELL 6.4
2024-02-23 06:10 am 8.5 5.2 9.1 E 6.9 6.7 ENE AVERAGE 6.4
2024-02-23 05:40 am 8.5 6.2 8.3 E 5.9 5.6 E STEEP 6.7
2024-02-23 05:10 am 8.5 5.6 13.8ENE 6.6 7.7 E AVERAGE 6.3
2024-02-23 04:40 am 8.2 5.2 13.8 N 6.6 8.3 ESE AVERAGE 6.5
2024-02-23 04:10 am 8.5 5.2 9.1ESE 6.6 7.7 E AVERAGE 6.6
2024-02-23 03:40 am 7.9 4.9 16.0 N 5.9 7.1 ENE AVERAGE 6.4
2024-02-23 03:10 am 8.5 6.2 13.8 N 5.6 6.7 E SWELL 6.6
2024-02-23 02:40 am 8.2 5.6 14.8NNE 5.9 7.1 E AVERAGE 6.4
2024-02-23 02:10 am 8.5 6.2 14.8 N 5.6 7.1 E SWELL 6.6
2024-02-23 01:40 am 8.5 5.6 16.0 N 6.6 7.1 E AVERAGE 6.4
2024-02-23 01:10 am 8.5 5.9 16.0NNE 5.9 6.7 ENE SWELL 6.6
2024-02-23 12:40 am 8.5 4.9 14.8NNW 6.9 8.3 ESE STEEP 6.3
2024-02-23 12:10 am 8.5 4.9 14.8 NE 6.9 8.3 E STEEP 6.5
2024-02-22 11:40 pm 8.2 4.6 9.1 E 6.6 7.7 E STEEP 6.2
2024-02-22 11:10 pm 7.9 5.6 9.1 E 5.6 7.1 E AVERAGE 6.4
2024-02-22 10:40 pm 8.2 5.9 8.3ESE 5.6 7.1 E STEEP 6.7
2024-02-22 10:10 pm 7.5 4.6 14.8NNW 6.2 8.3 E STEEP 6.4
2024-02-22 09:40 pm 7.5 5.6 8.3 E 4.9 6.7 ENE STEEP 6.5
2024-02-22 09:10 pm 7.5 4.6 8.3 E 5.9 6.7 E STEEP 6.0
2024-02-22 08:40 pm 7.5 5.2 13.8 N 5.2 7.1 ENE STEEP 6.4
2024-02-22 08:10 pm 7.5 5.9 14.8 N 4.6 5.9 E SWELL 6.3
2024-02-22 07:40 pm 7.5 5.2 8.3ESE 5.6 6.7 ENE STEEP 6.3
2024-02-22 07:10 pm 7.2 5.6 9.1ESE 4.9 7.1 E AVERAGE 6.6
2024-02-22 06:40 pm 7.5 6.2 8.3ESE 3.9 6.7 E STEEP 6.7
2024-02-22 06:10 pm 7.9 6.2 14.8NNW 4.6 6.7 E SWELL 6.8
2024-02-22 05:40 pm 7.9 6.2 8.3 E 4.9 5.9 ENE STEEP 6.7
2024-02-22 05:10 pm 7.9 6.6 9.1 E 4.6 5.9 E AVERAGE 6.8
2024-02-22 04:40 pm 7.5 6.2 7.1 E 3.9 6.2 ENE STEEP 6.5
2024-02-22 04:10 pm 7.9 6.6 9.1ENE 4.3 6.2 E AVERAGE 6.8
2024-02-22 03:40 pm 7.5 6.9 10.0 E 3.3 5.6 E AVERAGE 6.9
2024-02-22 03:10 pm 7.5 6.9 9.1ESE 3.3 5.6 E AVERAGE 6.8

Plot of wave energy versus frequency (and period)